AMAK1: Amazon Great Easter Ditch nr Lakin 11WSW

Data processed at Thu May 23 2019 23:50


All information presented herein is the property of the government of the United States of America and may be revised or deleted at any time without prior notice.
Dissemination of this information without the expressed written consent of the Public Affairs Office, Tulsa District U.S. Army Corps of Engineers is strictly prohibited.
These data are gathered electronically and, as presented, have not undergone any form of quality control. These data are not guaranteed to be valid or correct.
Go to home page.
Go to station list.
Go to home page.

Downstream station:


Previous Day
Next Day
Current Day
    
SHEF ID:       AMAK1     AMAZON GREAT EASTERN DITCH NR LA
STATION TYPE:  

               PRECIP     STAGE  STAGE(2)  RIV-FLOW  BAT-LOAD
                   in        ft        ft       cfs      volt
              Ccp-Rev   Ccp-Rev   Ccp-Rev   Ccp-Rev   Ccp-Rev
(US/Central)
05/23 00:00      0.00      4.18      4.12       210     12.49
05/23 01:00      0.00      4.18      4.12       210     12.49
05/23 02:00      0.00      4.18      4.12       210     12.49
05/23 03:00      0.00      4.18      4.12       210     12.41
05/23 04:00      0.00      4.19      4.14       211     12.41
05/23 05:00      0.00      4.19      4.13       211     12.41
05/23 06:00      0.00      4.19      4.14       211     12.41
05/23 07:00      0.00      4.20      4.13       213     12.41
05/23 08:00      0.00      4.19      4.13       211     12.33
05/23 09:00      0.00      4.19      4.13       211     12.33
05/23 10:00      0.04      4.20      4.14       213     12.49
05/23 11:00      0.61      4.26      4.18       222     12.33
05/23 12:00      0.03      4.28      4.20       225     12.49
05/23 13:00      0.00      4.29      4.22       226     12.97
05/23 14:00      0.00      4.28      4.22       225     13.21
05/23 15:00      0.01      4.29      4.22       226     13.13
05/23 16:00      0.00      4.27      4.22       223     13.29
05/23 17:00      0.02      4.27      4.22       223     12.97
05/23 18:00      0.47      4.33      4.26       232     12.81
05/23 19:00      0.02      4.33      4.27       232     12.97
05/23 20:00      0.13      4.34      4.28       234     12.81
05/23 21:00      0.00      4.34      4.27       234     13.05
05/23 22:00      0.00      4.33      4.26       232     12.57
05/23 23:00      0.00      4.32      4.25       231     12.49